Forside
METAR-TAF:

METAR-TAF

Lufthavne :

Kansai International Airport

Kansai, Japan

Breddekreds: 34-25N, længdekreds: 135-15E, højde: 5 m

Aktuelle vejr

Denne rapport blev lavet for 43 minutter siden, kl. 01:30 UTC
Vind 8 kt fra vestsydvest
Temperatur 24°C
Fugtighed 69%
Tryk 1011 hPa
Sigt 10 km eller mere
Nogle få skyer i en højde af 2500 ft
Spredte skyer i en højde af 7000 ft
Brudte skyer

METAR: RJBB 250130Z 25008KT 9999 FEW025 SCT070 BKN/// 24/18 Q1011 NOSIG

Tid: 11:13 (02:13 UTC)

Vejrudsigter

Denne rapport blev lavet for 3 timer og 7 minutter siden, kl. 23:06 UTC
Foreløbig gælder fra 25 på 00 UTC til 26 på 06 UTC
Vind 4 kt fra vestnordvest
Sigt 10 km eller mere
Nogle få skyer i en højde af 2500 ft
ændring
fra 25 på 03 UTC til 25 på 05 UTC
Vind 12 kt fra vestsydvest
ændring
fra 25 på 15 UTC til 25 på 18 UTC
Vind 4 kt fra syd

TAF: RJBB 242306Z 2500/2606 30004KT 9999 FEW025 BECMG 2503/2505 24012KT BECMG 2515/2518 18004KT

Vejrobservationer og prognoser fra mere end 4000 lufthavne (METAR og TAF).

De gule og røde prikker repræsenterer de meteorologiske stationer.

Flyt musen over at se navnet på stationen.

Så klik over at se vejr observationer og prognoser.

At skifte det kort: Klik på de grønne knapper med et sort kors for at zoome ind; på den grønne knap med en bindestreg for at zoome ud; eller på de grønne pile for tilstødende kort.


METAR-TAF: